Fern, Iowa
Current Conditions -  °F | °C
As of 8:54 AM on Monday 22 Dec 2014 (Local Time) from KALO Reporting Station
Light Rain Light Rain  
Wind Chill: 29°   Ceiling: 1900
Heat Index: 37°   Visibility: 4mi
Dew Point: 34°   Wind: 13mph
Humidity: 89%   Direction: 140°SE
Pressure: 29.68"   Gusts: NA
Location:  42.5787°N, 92.7634°W
Report Text: KALO 221454Z AUTO 14011KT 4SM -RA BR OVC019 03/01 A2968 RMK AO2 RAB15 SLP056 P0000 60000 T00280011 58012
Loading
Personal Weather Stations






























Interactive Weather Map New forecast layout! Learn more

10-Day Weather Forecast

Advertisements
Track Severe Weather on mobile